createdAt,value
2023-01-30T00:02:43.541Z,99303.94
2023-01-30T00:08:05.263Z,99289.34
2023-01-30T00:13:27.450Z,99273.94
2023-01-30T00:18:49.226Z,99246.47
2023-01-30T00:24:11.087Z,99249.94
2023-01-30T00:29:32.874Z,99261.97
2023-01-30T00:34:54.586Z,99251.69
2023-01-30T00:40:16.992Z,99225.09
2023-01-30T00:45:59.943Z,99241.47
2023-01-30T00:51:21.792Z,99249.16
2023-01-30T00:56:43.492Z,99270.53
2023-01-30T01:02:05.300Z,99281.63
2023-01-30T01:07:27.256Z,99313.31
2023-01-30T01:12:50.395Z,99326.19
2023-01-30T01:18:12.110Z,99317.56
2023-01-30T01:23:33.921Z,99325.31
2023-01-30T01:28:56.754Z,99327.03
2023-01-30T01:34:18.501Z,99346.75
2023-01-30T01:39:58.918Z,99336.44
2023-01-30T01:45:22.993Z,99313.31
2023-01-30T01:50:58.300Z,99318.47
2023-01-30T01:56:20.851Z,99327.97
2023-01-30T02:01:42.608Z,99307.44
2023-01-30T02:07:04.704Z,99327.19
2023-01-30T02:12:26.671Z,99331.44
2023-01-30T02:17:48.477Z,99323.72
2023-01-30T02:23:43.328Z,99306.69
2023-01-30T02:29:26.951Z,99293.81
2023-01-30T02:35:14.677Z,99272.47
2023-01-30T02:40:48.739Z,99310.09
2023-01-30T02:46:34.269Z,99264.63
2023-01-30T02:51:59.031Z,99256.09
2023-01-30T02:57:23.367Z,99277.44
2023-01-30T03:03:09.266Z,99256.06
2023-01-30T03:08:58.148Z,99234.59
2023-01-30T03:14:26.561Z,99209.72
2023-01-30T03:19:48.435Z,99198.63
2023-01-30T03:25:14.096Z,99163.44
2023-01-30T03:30:35.844Z,99123.13
2023-01-30T03:35:57.717Z,99097.19
2023-01-30T03:41:19.425Z,99106.19
2023-01-30T03:46:41.148Z,99112.91
2023-01-30T03:52:02.857Z,99116.22
2023-01-30T03:57:24.548Z,99147.88
2023-01-30T04:02:46.330Z,99145.25
2023-01-30T04:08:08.072Z,99139.09
2023-01-30T04:13:29.747Z,99143.13
2023-01-30T04:18:52.173Z,99132.13
2023-01-30T04:24:13.897Z,99138.84
2023-01-30T04:29:36.169Z,99130.28
2023-01-30T04:34:57.927Z,99132.00
2023-01-30T04:40:19.834Z,99118.09
2023-01-30T04:45:45.372Z,99129.25
2023-01-30T04:51:07.425Z,99138.59
2023-01-30T04:56:29.170Z,99127.25
2023-01-30T05:01:51.020Z,99124.63
2023-01-30T05:07:12.807Z,99114.25
2023-01-30T05:12:35.015Z,99102.38
2023-01-30T05:17:56.803Z,99104.72
2023-01-30T05:23:18.520Z,99085.78
2023-01-30T05:28:40.684Z,99082.38
2023-01-30T05:34:02.419Z,99080.53
2023-01-30T05:39:24.108Z,99073.78
2023-01-30T05:44:46.063Z,99060.91
2023-01-30T05:50:08.418Z,99066.13
2023-01-30T05:55:30.523Z,99077.28
2023-01-30T06:00:52.525Z,99084.19
2023-01-30T06:06:14.257Z,99088.28
2023-01-30T06:11:36.045Z,99081.47
2023-01-30T06:16:57.885Z,99069.13
2023-01-30T06:22:19.663Z,99067.38
2023-01-30T06:27:41.436Z,99066.44
2023-01-30T06:33:04.326Z,99053.53
2023-01-30T06:38:26.357Z,99047.56
2023-01-30T06:43:48.303Z,99034.63
2023-01-30T06:49:10.082Z,99036.38
2023-01-30T06:54:31.943Z,99024.38
2023-01-30T06:59:53.689Z,99023.25
2023-01-30T07:05:15.443Z,99036.16
2023-01-30T07:10:37.372Z,99045.81
2023-01-30T07:15:59.086Z,99054.22
2023-01-30T07:21:20.791Z,99073.09
2023-01-30T07:26:42.756Z,99065.28
2023-01-30T07:32:06.288Z,99073.81
2023-01-30T07:37:28.001Z,99071.97
2023-01-30T07:42:57.130Z,99084.16
2023-01-30T07:48:19.664Z,99090.78
2023-01-30T07:53:41.382Z,99094.94
2023-01-30T07:59:05.549Z,99079.97
2023-01-30T08:04:27.338Z,99068.78
2023-01-30T08:09:49.126Z,99073.13
2023-01-30T08:15:11.204Z,99091.03
2023-01-30T08:20:33.449Z,99110.09
2023-01-30T08:26:06.151Z,99085.22
2023-01-30T08:31:27.924Z,99092.38
2023-01-30T08:36:49.680Z,99054.53
2023-01-30T08:42:11.474Z,99061.19
2023-01-30T08:47:35.420Z,99045.13
2023-01-30T08:52:57.147Z,99037.56
2023-01-30T08:58:21.933Z,99042.03
2023-01-30T09:03:43.643Z,99013.31
2023-01-30T09:09:05.361Z,98984.59
2023-01-30T09:14:27.258Z,98981.66
2023-01-30T09:19:49.183Z,98991.03
2023-01-30T09:25:10.874Z,98994.28
2023-01-30T09:30:32.678Z,98992.38
2023-01-30T09:35:54.475Z,98990.19
2023-01-30T09:41:31.342Z,98997.16
2023-01-30T09:47:14.502Z,98989.97
2023-01-30T09:53:10.243Z,98974.97
2023-01-30T09:58:44.468Z,98954.81
2023-01-30T10:04:14.566Z,98931.97
2023-01-30T10:09:54.795Z,98943.78
2023-01-30T10:15:22.483Z,98918.38
2023-01-30T10:21:07.035Z,98905.13
2023-01-30T10:26:30.521Z,98891.91
2023-01-30T10:32:15.754Z,98911.47
2023-01-30T10:38:02.832Z,98911.84
2023-01-30T10:43:41.111Z,98913.09
2023-01-30T10:49:11.658Z,98903.69
2023-01-30T10:54:33.296Z,98891.34
2023-01-30T11:00:05.621Z,98905.09
2023-01-30T11:05:39.481Z,98899.75
2023-01-30T11:11:19.972Z,98899.72
2023-01-30T11:16:47.627Z,98907.47
2023-01-30T11:22:15.095Z,98913.31
2023-01-30T11:27:37.072Z,98889.94
2023-01-30T11:33:32.978Z,98894.97
2023-01-30T11:39:19.805Z,98902.91
2023-01-30T11:44:42.450Z,98908.22
2023-01-30T11:50:14.595Z,98921.72
2023-01-30T11:56:00.330Z,98914.88
2023-01-30T12:01:36.511Z,98902.09
2023-01-30T12:07:16.475Z,98892.78
2023-01-30T12:12:49.067Z,98892.03
2023-01-30T12:18:20.326Z,98883.31
2023-01-30T12:23:52.579Z,98892.31
2023-01-30T12:29:25.338Z,98878.81
2023-01-30T12:34:48.326Z,98881.19
2023-01-30T12:40:47.172Z,98886.47
2023-01-30T12:46:21.025Z,98896.78
2023-01-30T12:51:58.861Z,98903.59
2023-01-30T12:57:41.364Z,98925.00
2023-01-30T13:03:08.727Z,98925.00
2023-01-30T13:08:56.349Z,98906.78
2023-01-30T13:14:36.356Z,98905.41
2023-01-30T13:20:08.451Z,98908.44
2023-01-30T13:25:42.665Z,98909.13
2023-01-30T13:31:08.817Z,98921.25
2023-01-30T13:36:42.002Z,98921.16
2023-01-30T13:42:08.538Z,98944.78
2023-01-30T13:47:45.453Z,98952.88
2023-01-30T13:53:30.378Z,98965.41
2023-01-30T13:59:01.026Z,98981.75
2023-01-30T14:04:41.140Z,98983.97
2023-01-30T14:10:05.441Z,98985.06
2023-01-30T14:15:29.072Z,98974.25
2023-01-30T14:20:52.239Z,98981.75
2023-01-30T14:26:14.012Z,98981.59
2023-01-30T14:31:48.901Z,98983.91
2023-01-30T14:37:37.795Z,98993.22
2023-01-30T14:43:11.785Z,98995.84
2023-01-30T14:48:53.855Z,99011.75
2023-01-30T14:54:15.590Z,99015.00
2023-01-30T15:00:13.415Z,99019.56
2023-01-30T15:05:43.778Z,99036.03
2023-01-30T15:11:25.726Z,99057.00
2023-01-30T15:17:12.170Z,99076.50
2023-01-30T15:23:07.771Z,99081.84
2023-01-30T15:29:08.818Z,99069.56
2023-01-30T15:34:32.266Z,99067.25
2023-01-30T15:40:15.705Z,99064.53
2023-01-30T15:46:13.463Z,99069.47
2023-01-30T15:51:35.244Z,99068.00
2023-01-30T15:56:59.295Z,99060.09
2023-01-30T16:02:30.396Z,99065.19
2023-01-30T16:07:54.240Z,99077.53
2023-01-30T16:13:16.668Z,99086.72
2023-01-30T16:18:45.765Z,99086.09
2023-01-30T16:24:20.335Z,99101.41
2023-01-30T16:29:53.052Z,99099.28
2023-01-30T16:35:30.920Z,99114.63
2023-01-30T16:40:52.643Z,99139.69
2023-01-30T16:46:42.504Z,99143.34
2023-01-30T16:52:26.191Z,99163.28
2023-01-30T16:57:57.264Z,99168.38
2023-01-30T17:03:24.284Z,99164.06
2023-01-30T17:08:58.701Z,99173.50
2023-01-30T17:14:21.839Z,99170.56
2023-01-30T17:19:46.760Z,99184.22
2023-01-30T17:25:20.056Z,99190.22
2023-01-30T17:30:41.947Z,99193.75
2023-01-30T17:36:06.777Z,99223.25
2023-01-30T17:41:30.841Z,99223.25
2023-01-30T17:46:52.610Z,99224.75
2023-01-30T17:52:14.611Z,99245.69
2023-01-30T17:57:36.349Z,99249.13
2023-01-30T18:02:58.111Z,99260.53
2023-01-30T18:08:19.885Z,99256.94
2023-01-30T18:13:42.651Z,99263.06
2023-01-30T18:19:06.682Z,99270.84
2023-01-30T18:24:28.502Z,99282.34
2023-01-30T18:29:50.289Z,99286.25
2023-01-30T18:35:12.002Z,99295.47
2023-01-30T18:40:33.796Z,99298.75
2023-01-30T18:46:02.589Z,99315.91
2023-01-30T18:51:26.822Z,99320.13
2023-01-30T18:56:48.544Z,99325.13
2023-01-30T19:02:12.964Z,99334.63
2023-01-30T19:07:35.127Z,99330.16
2023-01-30T19:13:15.620Z,99330.31
2023-01-30T19:18:37.441Z,99339.31
2023-01-30T19:24:02.361Z,99358.63
2023-01-30T19:29:24.217Z,99375.91
2023-01-30T19:34:45.997Z,99370.88
2023-01-30T19:40:09.712Z,99389.78
2023-01-30T19:45:35.199Z,99370.00
2023-01-30T19:50:58.101Z,99370.00
2023-01-30T19:56:22.661Z,99384.72
2023-01-30T20:01:44.737Z,99390.03
2023-01-30T20:07:06.727Z,99404.69
2023-01-30T20:12:28.703Z,99398.63
2023-01-30T20:17:52.991Z,99409.06
2023-01-30T20:23:14.966Z,99416.28
2023-01-30T20:28:38.213Z,99428.31
2023-01-30T20:34:09.065Z,99442.03
2023-01-30T20:39:30.861Z,99435.88
2023-01-30T20:44:52.703Z,99433.28
2023-01-30T20:50:15.866Z,99439.25
2023-01-30T20:55:38.281Z,99446.91
2023-01-30T21:01:18.576Z,99443.53
2023-01-30T21:06:44.289Z,99446.81
2023-01-30T21:12:07.263Z,99448.47
2023-01-30T21:17:29.011Z,99451.97
2023-01-30T21:22:50.809Z,99466.66
2023-01-30T21:28:12.560Z,99478.75
2023-01-30T21:33:34.452Z,99465.69
2023-01-30T21:39:14.799Z,99474.31
2023-01-30T21:44:37.861Z,99480.41
2023-01-30T21:49:59.719Z,99477.63
2023-01-30T21:55:21.864Z,99485.22
2023-01-30T22:00:43.810Z,99488.72
2023-01-30T22:06:10.058Z,99485.94
2023-01-30T22:11:32.804Z,99490.41
2023-01-30T22:16:54.730Z,99492.25
2023-01-30T22:22:16.551Z,99495.25
2023-01-30T22:27:38.509Z,99507.47
2023-01-30T22:33:00.223Z,99503.25
2023-01-30T22:38:23.103Z,99497.31
2023-01-30T22:43:47.420Z,99488.69
2023-01-30T22:49:10.165Z,99487.97
2023-01-30T22:54:31.985Z,99508.53
2023-01-30T22:59:53.771Z,99503.41
2023-01-30T23:05:15.534Z,99502.22
2023-01-30T23:10:40.328Z,99506.69
2023-01-30T23:16:04.085Z,99504.00
2023-01-30T23:21:31.767Z,99504.81
2023-01-30T23:26:53.486Z,99505.63
2023-01-30T23:32:18.913Z,99503.72
2023-01-30T23:37:59.196Z,99506.56
2023-01-30T23:43:21.053Z,99514.47
2023-01-30T23:48:44.514Z,99512.69
2023-01-30T23:54:07.144Z,99510.13
2023-01-30T23:59:28.851Z,99494.00
